Capon Springs, WV

09:41 EDT le 30 octobre 2014 (GMT -0400)
Greater Cumberland Regional | Change Station
CLOSE
Current Station
Aéroport
Location: Cumberland,
Altitude: 774 ft
Stations météo à proximité

Alt. 774 ft 39.62 °N, 78.76 °W | Updated 8 minutes ago

Couvert
Couvert
48 ° F
Paraît 48 ° F
N
5
Vent Variable Vent de NO

Aujourd'hui
Haut(e) -- | Bas -- ° F
--% Risque de précip.
Hier
Haut(e) -- | Bas -- ° F
Precip. -- pouce
7:39 AM 6:15 PM
Lune montante, 44% visible
Pression 30.13 pouce
Visibilité 10.0 Miles terrestres
Nuages Couvert 5000 ft
Point de rosée 36 ° F
Humidité 62%
Précipitations 0.00 pouce
Profondeur de la couche neigeuse Non disponible.
UV 0 sur 12
Pollen .80 sur 12
Qualité de l'air Non disponible.
Flu Activity Non disponible.
METAR KCBE 301333Z AUTO 31004KT 10SM OVC050 09/02 A3013 RMK AO1

More Conditions Fewer Conditions

Pression 30.13 pouce
Visibilité 10.0 Miles terrestres
Nuages Couvert 5000 ft
Point de rosée 36 ° F
Humidité 62%
Précipitations 0.00 pouce
Profondeur de la couche neigeuse Non disponible.
UV 0 sur 12
Pollen .80 sur 12
Qualité de l'air Non disponible.
Flu Activity Non disponible.
METAR KCBE 301333Z AUTO 31004KT 10SM OVC050 09/02 A3013 RMK AO1

More Conditions Fewer Conditions

10-Day Weather Forecast

Almanac

Astronomie

Oct. 30, 2014 Lever Coucher
Temps réel
Crépuscule civil
Crépuscule nautique
Crépuscule astronomique
Lune
Durée de lumière visible
Longueur du jour
Tomorrow will be .
, % of the Moon is Illuminated

Extrêmes aujourd'hui

State Highs State Lows

Community

WunderPhotos

Upload Photos

1,766,358 Photos téléchargées !

WunderBlogs® & News

Nearby

Qualité de l'air

  Qualité de l'air Indice de la qualité de l'air Polluant
Not available.

Épaisseur de neige

Station Depth Altitude

Activité sismique

Ville Distance Mag. Time & Date
Minimum magnitude displayed is 2.5.

Températures des eaux côtières

Lieu Température

Stations météo à proximité